Time,TemperatureF,DewpointF,PressureIn,WindDirection,WindDirectionDegrees,WindSpeedMPH,WindSpeedGustMPH,Humidity,HourlyPrecipIn,Conditions,Clouds,dailyrainin,SoftwareType,DateUTC
2013-08-04 00:00:00,56.1,54.1,29.99,NNW,340,0.0,0.0,93,0.00,,,0.00,Wunderground v.1.15,2013-08-04 07:00:00,
2013-08-04 00:10:00,56.1,54.1,29.99,NNW,340,0.0,0.0,93,0.00,,,0.00,Wunderground v.1.15,2013-08-04 07:10:00,
2013-08-04 00:15:00,56.1,54.1,29.99,NNW,340,0.0,0.0,93,0.00,,,0.00,Wunderground v.1.15,2013-08-04 07:15:00,
2013-08-04 00:25:00,56.1,54.1,29.99,NNW,346,0.0,0.0,93,0.00,,,0.00,Wunderground v.1.15,2013-08-04 07:25:00,
2013-08-04 00:35:00,56.1,54.1,29.99,North,351,0.0,0.0,93,0.00,,,0.00,Wunderground v.1.15,2013-08-04 07:35:00,
2013-08-04 00:40:00,56.1,54.1,29.99,North,351,0.0,0.0,93,0.00,,,0.00,Wunderground v.1.15,2013-08-04 07:40:00,
2013-08-04 00:50:00,56.1,54.1,29.99,North,351,0.0,0.0,93,0.00,,,0.00,Wunderground v.1.15,2013-08-04 07:50:00,
2013-08-04 01:00:00,56.0,54.0,29.99,North,351,0.0,0.0,93,0.00,,,0.00,Wunderground v.1.15,2013-08-04 08:00:00,
2013-08-04 01:10:00,55.8,54.1,29.99,North,351,0.0,0.0,94,0.00,,,0.00,Wunderground v.1.15,2013-08-04 08:10:00,
2013-08-04 01:20:00,55.8,54.1,29.99,North,351,0.0,0.0,94,0.00,,,0.00,Wunderground v.1.15,2013-08-04 08:20:00,
2013-08-04 01:30:00,55.7,54.0,29.99,North,351,0.0,0.0,94,0.00,,,0.00,Wunderground v.1.15,2013-08-04 08:30:00,
2013-08-04 01:35:00,55.7,54.0,29.99,North,351,0.0,0.0,94,0.00,,,0.00,Wunderground v.1.15,2013-08-04 08:35:00,
2013-08-04 01:45:00,55.6,53.9,29.99,North,351,0.0,0.0,94,0.00,,,0.00,Wunderground v.1.15,2013-08-04 08:45:00,
2013-08-04 01:55:00,55.4,53.7,29.99,NW,314,0.0,1.0,94,0.00,,,0.00,Wunderground v.1.15,2013-08-04 08:55:00,
2013-08-04 02:00:00,55.4,53.7,29.99,NW,314,0.0,0.0,94,0.00,,,0.00,Wunderground v.1.15,2013-08-04 09:00:00,
2013-08-04 02:10:00,55.3,53.9,29.98,North,349,0.0,0.0,95,0.00,,,0.00,Wunderground v.1.15,2013-08-04 09:10:00,
2013-08-04 02:20:00,55.2,53.8,29.99,North,350,0.0,0.0,95,0.00,,,0.00,Wunderground v.1.15,2013-08-04 09:20:00,
2013-08-04 02:30:00,55.3,53.9,29.98,North,350,0.0,0.0,95,0.00,,,0.00,Wunderground v.1.15,2013-08-04 09:30:00,
2013-08-04 02:40:00,55.2,53.8,29.98,North,350,0.0,0.0,95,0.00,,,0.00,Wunderground v.1.15,2013-08-04 09:40:00,
2013-08-04 02:50:00,55.2,53.8,29.98,North,350,0.0,0.0,95,0.00,,,0.00,Wunderground v.1.15,2013-08-04 09:50:00,
2013-08-04 03:00:00,55.1,53.7,29.98,North,350,0.0,1.0,95,0.00,,,0.00,Wunderground v.1.15,2013-08-04 10:00:00,
2013-08-04 03:10:00,55.0,53.9,29.98,North,350,0.0,0.0,96,0.00,,,0.00,Wunderground v.1.15,2013-08-04 10:10:00,
2013-08-04 03:20:00,55.0,53.9,29.98,North,350,0.0,0.0,96,0.00,,,0.00,Wunderground v.1.15,2013-08-04 10:20:00,
2013-08-04 03:30:00,55.0,53.9,29.97,North,350,0.0,0.0,96,0.00,,,0.00,Wunderground v.1.15,2013-08-04 10:30:00,
2013-08-04 03:35:00,55.0,53.9,29.97,North,350,0.0,0.0,96,0.00,,,0.00,Wunderground v.1.15,2013-08-04 10:35:00,
2013-08-04 03:45:00,55.0,53.9,29.97,North,350,0.0,0.0,96,0.00,,,0.00,Wunderground v.1.15,2013-08-04 10:45:00,
2013-08-04 03:55:00,54.9,53.8,29.98,North,350,0.0,0.0,96,0.00,,,0.00,Wunderground v.1.15,2013-08-04 10:55:00,
2013-08-04 04:00:00,54.9,54.1,29.98,North,350,0.0,0.0,97,0.00,,,0.00,Wunderground v.1.15,2013-08-04 11:00:00,
2013-08-04 04:10:00,54.9,54.1,29.97,North,350,0.0,0.0,97,0.00,,,0.00,Wunderground v.1.15,2013-08-04 11:10:00,
2013-08-04 04:20:00,54.9,54.1,29.97,North,350,0.0,0.0,97,0.00,,,0.00,Wunderground v.1.15,2013-08-04 11:20:00,
2013-08-04 04:30:00,54.9,54.1,29.97,North,350,0.0,0.0,97,0.00,,,0.00,Wunderground v.1.15,2013-08-04 11:30:00,
2013-08-04 04:35:00,54.9,54.1,29.98,North,350,0.0,0.0,97,0.00,,,0.00,Wunderground v.1.15,2013-08-04 11:35:00,
2013-08-04 04:45:00,54.8,54.0,29.97,North,350,0.0,0.0,97,0.00,,,0.00,Wunderground v.1.15,2013-08-04 11:45:00,
2013-08-04 04:55:00,54.7,53.9,29.97,North,350,0.0,0.0,97,0.00,,,0.00,Wunderground v.1.15,2013-08-04 11:55:00,
2013-08-04 05:00:00,54.6,53.8,29.97,NNW,336,0.0,0.0,97,0.00,,,0.00,Wunderground v.1.15,2013-08-04 12:00:00,
2013-08-04 05:10:00,54.5,53.7,29.97,NNW,336,0.0,0.0,97,0.00,,,0.00,Wunderground v.1.15,2013-08-04 12:10:00,
2013-08-04 05:20:00,54.5,53.7,29.97,NNW,336,0.0,0.0,97,0.00,,,0.00,Wunderground v.1.15,2013-08-04 12:20:00,
2013-08-04 05:30:00,54.4,53.6,29.98,NNW,336,0.0,1.0,97,0.00,,,0.00,Wunderground v.1.15,2013-08-04 12:30:00,
2013-08-04 05:35:00,54.3,53.5,29.98,NNW,336,0.0,0.0,97,0.00,,,0.00,Wunderground v.1.15,2013-08-04 12:35:00,
2013-08-04 05:45:00,54.2,53.4,29.98,WNW,293,1.0,2.0,97,0.00,,,0.00,Wunderground v.1.15,2013-08-04 12:45:00,
2013-08-04 05:55:00,54.1,53.3,29.98,NW,305,1.0,1.0,97,0.00,,,0.00,Wunderground v.1.15,2013-08-04 12:55:00,
2013-08-04 06:00:00,54.0,53.4,29.98,NW,305,0.0,0.0,98,0.00,,,0.00,Wunderground v.1.15,2013-08-04 13:00:00,
2013-08-04 06:10:00,54.0,53.2,29.99,NW,308,0.0,0.0,97,0.00,,,0.00,Wunderground v.1.15,2013-08-04 13:10:00,
2013-08-04 06:20:00,53.9,53.3,29.98,NW,308,0.0,0.0,98,0.00,,,0.00,Wunderground v.1.15,2013-08-04 13:20:00,
2013-08-04 06:30:00,53.8,53.2,29.98,NW,308,0.0,0.0,98,0.00,,,0.00,Wunderground v.1.15,2013-08-04 13:30:00,
2013-08-04 06:35:00,53.8,53.2,29.98,NW,308,0.0,0.0,98,0.00,,,0.00,Wunderground v.1.15,2013-08-04 13:35:00,
2013-08-04 06:45:00,53.9,53.3,29.98,NNE,29,0.0,0.0,98,0.00,,,0.00,Wunderground v.1.15,2013-08-04 13:45:00,
2013-08-04 06:55:00,53.9,53.3,29.99,NNE,29,0.0,0.0,98,0.00,,,0.00,Wunderground v.1.15,2013-08-04 13:55:00,
2013-08-04 07:00:00,53.9,53.3,29.99,NNE,29,0.0,0.0,98,0.00,,,0.00,Wunderground v.1.15,2013-08-04 14:00:00,
2013-08-04 07:10:00,54.0,53.4,29.99,NNE,29,0.0,0.0,98,0.00,,,0.00,Wunderground v.1.15,2013-08-04 14:10:00,
2013-08-04 07:20:00,54.0,53.4,29.99,NNE,29,0.0,0.0,98,0.00,,,0.00,Wunderground v.1.15,2013-08-04 14:20:00,
2013-08-04 07:30:00,54.0,53.4,29.99,NNE,29,0.0,0.0,98,0.00,,,0.00,Wunderground v.1.15,2013-08-04 14:30:00,
2013-08-04 07:35:00,54.2,53.6,29.99,NE,56,0.0,0.0,98,0.00,,,0.00,Wunderground v.1.15,2013-08-04 14:35:00,
2013-08-04 07:45:00,54.4,53.8,29.99,NE,56,0.0,0.0,98,0.00,,,0.00,Wunderground v.1.15,2013-08-04 14:45:00,
2013-08-04 07:55:00,54.4,53.8,29.99,NE,56,0.0,1.0,98,0.00,,,0.00,Wunderground v.1.15,2013-08-04 14:55:00,
2013-08-04 08:00:00,54.2,53.6,29.99,NE,56,0.0,0.0,98,0.00,,,0.00,Wunderground v.1.15,2013-08-04 15:00:00,
2013-08-04 08:10:00,54.1,53.5,30.00,NE,56,0.0,0.0,98,0.00,,,0.00,Wunderground v.1.15,2013-08-04 15:10:00,
2013-08-04 08:20:00,54.3,53.7,30.00,WNW,301,0.0,0.0,98,0.00,,,0.00,Wunderground v.1.15,2013-08-04 15:20:00,
2013-08-04 08:30:00,54.4,53.8,30.00,WNW,301,0.0,0.0,98,0.00,,,0.00,Wunderground v.1.15,2013-08-04 15:30:00,
2013-08-04 08:35:00,54.5,53.9,30.00,WNW,301,0.0,0.0,98,0.00,,,0.00,Wunderground v.1.15,2013-08-04 15:35:00,
2013-08-04 08:45:00,54.6,54.0,30.00,WNW,300,1.0,1.0,98,0.00,,,0.00,Wunderground v.1.15,2013-08-04 15:45:00,
2013-08-04 08:55:00,54.7,54.1,30.00,WNW,286,1.0,2.0,98,0.00,,,0.00,Wunderground v.1.15,2013-08-04 15:55:00,
2013-08-04 09:00:00,54.7,54.1,30.00,WNW,300,1.0,2.0,98,0.00,,,0.00,Wunderground v.1.15,2013-08-04 16:00:00,
2013-08-04 09:10:00,54.9,54.1,30.00,North,355,1.0,1.0,97,0.00,,,0.00,Wunderground v.1.15,2013-08-04 16:10:00,
2013-08-04 09:15:00,55.0,54.2,30.00,NNW,344,0.0,1.0,97,0.00,,,0.00,Wunderground v.1.15,2013-08-04 16:15:00,
2013-08-04 09:25:00,55.3,54.5,30.00,NNW,344,0.0,0.0,97,0.00,,,0.00,Wunderground v.1.15,2013-08-04 16:25:00,
2013-08-04 09:35:00,55.5,54.4,29.99,North,355,0.0,0.0,96,0.00,,,0.00,Wunderground v.1.15,2013-08-04 16:35:00,
2013-08-04 09:45:00,55.5,54.4,29.99,NNW,338,0.0,1.0,96,0.00,,,0.00,Wunderground v.1.15,2013-08-04 16:45:00,
2013-08-04 09:55:00,55.9,54.8,29.99,NNW,338,0.0,0.0,96,0.00,,,0.00,Wunderground v.1.15,2013-08-04 16:55:00,
2013-08-04 10:00:00,55.9,54.8,29.99,NW,325,0.0,0.0,96,0.00,,,0.00,Wunderground v.1.15,2013-08-04 17:00:00,
2013-08-04 10:10:00,56.1,55.0,29.99,NW,317,1.0,2.0,96,0.00,,,0.00,Wunderground v.1.15,2013-08-04 17:10:00,
2013-08-04 10:20:00,56.2,54.8,29.99,WNW,301,1.0,2.0,95,0.00,,,0.00,Wunderground v.1.15,2013-08-04 17:20:00,
2013-08-04 10:30:00,56.6,55.5,29.99,North,355,1.0,1.0,96,0.00,,,0.00,Wunderground v.1.15,2013-08-04 17:30:00,
2013-08-04 10:40:00,57.5,55.8,29.99,North,360,2.0,2.0,94,0.00,,,0.00,Wunderground v.1.15,2013-08-04 17:40:00,
2013-08-04 10:50:00,58.2,55.9,29.99,NNW,342,2.0,2.0,92,0.00,,,0.00,Wunderground v.1.15,2013-08-04 17:50:00,
2013-08-04 11:00:00,59.2,56.6,29.99,NNW,342,1.0,3.0,91,0.00,,,0.00,Wunderground v.1.15,2013-08-04 18:00:00,
2013-08-04 11:10:00,60.0,56.7,29.99,WNW,294,2.0,6.0,89,0.00,,,0.00,Wunderground v.1.15,2013-08-04 18:10:00,
2013-08-04 11:20:00,60.5,56.9,29.98,NNW,340,2.0,2.0,88,0.00,,,0.00,Wunderground v.1.15,2013-08-04 18:20:00,
2013-08-04 11:30:00,62.3,58.1,29.98,West,263,2.0,2.0,86,0.00,,,0.00,Wunderground v.1.15,2013-08-04 18:30:00,
2013-08-04 11:35:00,63.1,58.2,29.98,NNW,337,2.0,4.0,84,0.00,,,0.00,Wunderground v.1.15,2013-08-04 18:35:00,
2013-08-04 11:45:00,64.1,58.5,29.98,NNE,19,2.0,2.0,82,0.00,,,0.00,Wunderground v.1.15,2013-08-04 18:45:00,
2013-08-04 11:55:00,65.2,58.9,29.98,North,5,2.0,3.0,80,0.00,,,0.00,Wunderground v.1.15,2013-08-04 18:55:00,
2013-08-04 12:00:00,65.6,59.3,29.98,SE,124,1.0,1.0,80,0.00,,,0.00,Wunderground v.1.15,2013-08-04 19:00:00,
2013-08-04 12:10:00,66.8,60.1,29.97,NW,324,1.0,2.0,79,0.00,,,0.00,Wunderground v.1.15,2013-08-04 19:10:00,
2013-08-04 12:20:00,67.3,59.5,29.97,West,271,2.0,2.0,76,0.00,,,0.00,Wunderground v.1.15,2013-08-04 19:20:00,
2013-08-04 12:30:00,68.4,60.2,29.96,NNE,21,2.0,4.0,75,0.00,,,0.00,Wunderground v.1.15,2013-08-04 19:30:00,
2013-08-04 12:35:00,69.3,61.4,29.96,NNW,337,3.0,6.0,76,0.00,,,0.00,Wunderground v.1.15,2013-08-04 19:35:00,
2013-08-04 12:45:00,70.4,60.5,29.96,WNW,296,2.0,3.0,71,0.00,,,0.00,Wunderground v.1.15,2013-08-04 19:45:00,
2013-08-04 12:55:00,70.2,61.5,29.96,WNW,284,2.0,6.0,74,0.00,,,0.00,Wunderground v.1.15,2013-08-04 19:55:00,
2013-08-04 13:00:00,70.8,61.3,29.96,NNW,345,3.0,3.0,72,0.00,,,0.00,Wunderground v.1.15,2013-08-04 20:00:00,
2013-08-04 13:10:00,71.2,60.5,29.95,WNW,292,3.0,5.0,69,0.00,,,0.00,Wunderground v.1.15,2013-08-04 20:10:00,
2013-08-04 13:20:00,71.5,60.8,29.95,North,355,3.0,3.0,69,0.00,,,0.00,Wunderground v.1.15,2013-08-04 20:20:00,
2013-08-04 13:30:00,71.6,60.1,29.95,West,281,3.0,3.0,67,0.00,,,0.00,Wunderground v.1.15,2013-08-04 20:30:00,
2013-08-04 13:35:00,71.6,61.7,29.95,NW,307,3.0,3.0,71,0.00,,,0.00,Wunderground v.1.15,2013-08-04 20:35:00,
2013-08-04 13:45:00,71.5,60.4,29.95,West,263,5.0,6.0,68,0.00,,,0.00,Wunderground v.1.15,2013-08-04 20:45:00,
2013-08-04 13:55:00,71.4,59.9,29.95,WNW,290,4.0,6.0,67,0.00,,,0.00,Wunderground v.1.15,2013-08-04 20:55:00,
2013-08-04 14:00:00,71.2,60.1,29.95,West,268,4.0,4.0,68,0.00,,,0.00,Wunderground v.1.15,2013-08-04 21:00:00,
2013-08-04 14:10:00,71.3,59.4,29.95,WNW,286,3.0,5.0,66,0.00,,,0.00,Wunderground v.1.15,2013-08-04 21:10:00,
2013-08-04 14:20:00,71.6,60.1,29.95,NW,324,3.0,4.0,67,0.00,,,0.00,Wunderground v.1.15,2013-08-04 21:20:00,
2013-08-04 14:30:00,72.4,60.4,29.95,West,259,3.0,3.0,66,0.00,,,0.00,Wunderground v.1.15,2013-08-04 21:30:00,
2013-08-04 14:35:00,72.0,60.0,29.95,North,360,4.0,4.0,66,0.00,,,0.00,Wunderground v.1.15,2013-08-04 21:35:00,
2013-08-04 14:45:00,72.1,60.5,29.95,NW,314,3.0,4.0,67,0.00,,,0.00,Wunderground v.1.15,2013-08-04 21:45:00,
2013-08-04 14:55:00,70.9,59.8,29.95,West,271,3.0,5.0,68,0.00,,,0.00,Wunderground v.1.15,2013-08-04 21:55:00,
2013-08-04 15:00:00,70.8,59.7,29.95,NW,309,3.0,4.0,68,0.00,,,0.00,Wunderground v.1.15,2013-08-04 22:00:00,
2013-08-04 15:10:00,70.9,59.8,29.95,NW,316,3.0,7.0,68,0.00,,,0.00,Wunderground v.1.15,2013-08-04 22:10:00,
2013-08-04 15:20:00,70.4,59.3,29.95,NW,313,3.0,6.0,68,0.00,,,0.00,Wunderground v.1.15,2013-08-04 22:20:00,
2013-08-04 15:30:00,70.6,59.5,29.94,NW,311,4.0,6.0,68,0.00,,,0.00,Wunderground v.1.15,2013-08-04 22:30:00,
2013-08-04 15:35:00,70.1,58.6,29.94,WNW,282,4.0,6.0,67,0.00,,,0.00,Wunderground v.1.15,2013-08-04 22:35:00,
2013-08-04 15:40:00,69.4,59.2,29.94,North,355,4.0,5.0,70,0.00,,,0.00,Wunderground v.1.15,2013-08-04 22:40:00,
2013-08-04 15:50:00,68.8,58.2,29.95,SW,225,5.0,6.0,69,0.00,,,0.00,Wunderground v.1.15,2013-08-04 22:50:00,
2013-08-04 16:00:00,68.6,58.8,29.95,WNW,293,5.0,5.0,71,0.00,,,0.00,Wunderground v.1.15,2013-08-04 23:00:00,
2013-08-04 16:10:00,68.4,59.0,29.95,NW,311,3.0,10.0,72,0.00,,,0.00,Wunderground v.1.15,2013-08-04 23:10:00,
2013-08-04 16:20:00,67.7,58.7,29.95,North,355,4.0,4.0,73,0.00,,,0.00,Wunderground v.1.15,2013-08-04 23:20:00,
2013-08-04 16:30:00,67.1,57.8,29.95,WNW,289,5.0,7.0,72,0.00,,,0.00,Wunderground v.1.15,2013-08-04 23:30:00,
2013-08-04 16:35:00,66.6,57.7,29.95,WNW,290,5.0,7.0,73,0.00,,,0.00,Wunderground v.1.15,2013-08-04 23:35:00,
2013-08-04 16:45:00,66.8,57.9,29.94,WNW,300,3.0,5.0,73,0.00,,,0.00,Wunderground v.1.15,2013-08-04 23:45:00,
2013-08-04 16:55:00,66.2,57.3,29.95,NW,307,3.0,4.0,73,0.00,,,0.00,Wunderground v.1.15,2013-08-04 23:55:00,
2013-08-04 17:00:00,65.9,57.4,29.95,West,281,3.0,3.0,74,0.00,,,0.00,Wunderground v.1.15,2013-08-05 00:00:00,
2013-08-04 17:10:00,64.9,57.2,29.95,West,281,3.0,3.0,76,0.00,,,0.00,Wunderground v.1.15,2013-08-05 00:10:00,
2013-08-04 17:20:00,63.6,56.6,29.95,WNW,286,4.0,4.0,78,0.00,,,0.00,Wunderground v.1.15,2013-08-05 00:20:00,
2013-08-04 17:30:00,62.8,56.5,29.95,ENE,58,3.0,3.0,80,0.00,,,0.00,Wunderground v.1.15,2013-08-05 00:30:00,
2013-08-04 17:35:00,62.6,56.7,29.95,NNE,30,4.0,4.0,81,0.00,,,0.00,Wunderground v.1.15,2013-08-05 00:35:00,
2013-08-04 17:45:00,62.2,56.3,29.95,WNW,302,4.0,5.0,81,0.00,,,0.00,Wunderground v.1.15,2013-08-05 00:45:00,
2013-08-04 17:55:00,61.6,56.0,29.95,WNW,290,3.0,6.0,82,0.00,,,0.00,Wunderground v.1.15,2013-08-05 00:55:00,
2013-08-04 18:00:00,61.4,55.9,29.95,West,273,3.0,3.0,82,0.00,,,0.00,Wunderground v.1.15,2013-08-05 01:00:00,
2013-08-04 18:10:00,61.1,55.9,29.95,NW,309,3.0,3.0,83,0.00,,,0.00,Wunderground v.1.15,2013-08-05 01:10:00,
2013-08-04 18:20:00,60.5,55.6,29.96,WSW,253,3.0,3.0,84,0.00,,,0.00,Wunderground v.1.15,2013-08-05 01:20:00,
2013-08-04 18:30:00,60.0,55.2,29.96,NW,305,3.0,3.0,84,0.00,,,0.00,Wunderground v.1.15,2013-08-05 01:30:00,
2013-08-04 18:35:00,59.9,55.4,29.96,WSW,252,3.0,3.0,85,0.00,,,0.00,Wunderground v.1.15,2013-08-05 01:35:00,
2013-08-04 18:45:00,59.0,54.8,29.96,WNW,290,4.0,8.0,86,0.00,,,0.00,Wunderground v.1.15,2013-08-05 01:45:00,
2013-08-04 18:55:00,58.5,54.6,29.96,NW,314,4.0,5.0,87,0.00,,,0.00,Wunderground v.1.15,2013-08-05 01:55:00,
2013-08-04 19:00:00,58.3,54.4,29.96,NW,319,3.0,7.0,87,0.00,,,0.00,Wunderground v.1.15,2013-08-05 02:00:00,
2013-08-04 19:10:00,57.9,54.4,29.96,North,355,4.0,10.0,88,0.00,,,0.00,Wunderground v.1.15,2013-08-05 02:10:00,
2013-08-04 19:20:00,57.5,54.3,29.97,NW,311,3.0,7.0,89,0.00,,,0.00,Wunderground v.1.15,2013-08-05 02:20:00,
2013-08-04 19:30:00,57.1,54.2,29.97,NW,322,4.0,4.0,90,0.00,,,0.00,Wunderground v.1.15,2013-08-05 02:30:00,
2013-08-04 19:35:00,56.9,54.0,29.97,NW,313,4.0,5.0,90,0.00,,,0.00,Wunderground v.1.15,2013-08-05 02:35:00,
2013-08-04 19:45:00,56.6,54.0,29.97,West,267,3.0,3.0,91,0.00,,,0.00,Wunderground v.1.15,2013-08-05 02:45:00,
2013-08-04 19:55:00,56.4,53.8,29.97,WNW,300,3.0,4.0,91,0.00,,,0.00,Wunderground v.1.15,2013-08-05 02:55:00,
2013-08-04 20:05:00,56.3,54.0,29.98,WNW,301,2.0,2.0,92,0.00,,,0.00,Wunderground v.1.15,2013-08-05 03:05:00,
2013-08-04 20:15:00,56.3,54.0,29.98,NNW,344,2.0,2.0,92,0.00,,,0.00,Wunderground v.1.15,2013-08-05 03:15:00,
2013-08-04 20:20:00,56.2,53.9,29.98,NW,318,2.0,2.0,92,0.00,,,0.00,Wunderground v.1.15,2013-08-05 03:20:00,
2013-08-04 20:30:00,56.2,53.9,29.98,WNW,292,1.0,2.0,92,0.00,,,0.00,Wunderground v.1.15,2013-08-05 03:30:00,
2013-08-04 20:40:00,56.1,53.8,29.99,West,261,2.0,3.0,92,0.00,,,0.00,Wunderground v.1.15,2013-08-05 03:40:00,
2013-08-04 20:50:00,56.1,53.8,29.99,NNW,346,1.0,2.0,92,0.00,,,0.00,Wunderground v.1.15,2013-08-05 03:50:00,
2013-08-04 21:00:00,56.1,54.1,29.99,West,259,1.0,1.0,93,0.00,,,0.00,Wunderground v.1.15,2013-08-05 04:00:00,
2013-08-04 21:05:00,56.1,54.1,29.99,NW,323,1.0,1.0,93,0.00,,,0.00,Wunderground v.1.15,2013-08-05 04:05:00,
2013-08-04 21:10:00,56.1,54.1,29.99,WNW,297,1.0,2.0,93,0.00,,,0.00,Wunderground v.1.15,2013-08-05 04:10:00,
2013-08-04 21:15:00,56.0,54.0,29.99,North,5,1.0,2.0,93,0.00,,,0.00,Wunderground v.1.15,2013-08-05 04:15:00,
2013-08-04 21:25:00,55.9,53.9,30.00,West,265,1.0,2.0,93,0.00,,,0.00,Wunderground v.1.15,2013-08-05 04:25:00,
2013-08-04 21:29:00,55.8,53.8,30.00,NNW,342,1.0,1.0,93,0.00,,,0.00,Wunderground v.1.15,2013-08-05 04:29:00,
2013-08-04 21:35:00,55.8,53.8,30.00,WNW,292,1.0,1.0,93,0.00,,,0.00,Wunderground v.1.15,2013-08-05 04:35:00,
2013-08-04 21:45:00,55.8,53.8,30.00,WNW,297,1.0,3.0,93,0.00,,,0.00,Wunderground v.1.15,2013-08-05 04:45:00,
2013-08-04 21:55:00,55.8,54.1,30.00,WNW,298,0.0,1.0,94,0.00,,,0.00,Wunderground v.1.15,2013-08-05 04:55:00,
2013-08-04 22:00:00,55.8,54.1,30.00,WNW,289,1.0,1.0,94,0.00,,,0.00,Wunderground v.1.15,2013-08-05 05:00:00,
2013-08-04 22:10:00,55.7,54.0,30.00,NW,304,1.0,5.0,94,0.00,,,0.00,Wunderground v.1.15,2013-08-05 05:10:00,
2013-08-04 22:15:00,55.6,53.9,30.00,NNW,338,2.0,5.0,94,0.00,,,0.00,Wunderground v.1.15,2013-08-05 05:15:00,
2013-08-04 22:25:00,55.5,53.8,30.00,WNW,294,1.0,2.0,94,0.00,,,0.00,Wunderground v.1.15,2013-08-05 05:25:00,
2013-08-04 22:35:00,55.5,53.8,30.00,NW,318,1.0,1.0,94,0.00,,,0.00,Wunderground v.1.15,2013-08-05 05:35:00,
2013-08-04 22:45:00,55.4,53.7,30.00,WNW,297,1.0,1.0,94,0.00,,,0.00,Wunderground v.1.15,2013-08-05 05:45:00,
2013-08-04 22:55:00,55.4,53.7,30.00,NW,315,0.0,2.0,94,0.00,,,0.00,Wunderground v.1.15,2013-08-05 05:55:00,
2013-08-04 23:00:00,55.4,53.7,30.00,NW,317,1.0,1.0,94,0.00,,,0.00,Wunderground v.1.15,2013-08-05 06:00:00,
2013-08-04 23:10:00,55.4,54.0,30.00,NNW,329,0.0,1.0,95,0.00,,,0.00,Wunderground v.1.15,2013-08-05 06:10:00,
2013-08-04 23:20:00,55.4,54.0,30.00,WNW,284,1.0,1.0,95,0.00,,,0.00,Wunderground v.1.15,2013-08-05 06:20:00,
2013-08-04 23:30:00,55.3,53.9,30.00,NNW,334,1.0,1.0,95,0.00,,,0.00,Wunderground v.1.15,2013-08-05 06:30:00,
2013-08-04 23:35:00,55.2,53.8,30.00,NNW,334,1.0,1.0,95,0.00,,,0.00,Wunderground v.1.15,2013-08-05 06:35:00,
2013-08-04 23:45:00,55.2,53.8,30.00,NW,312,0.0,2.0,95,0.00,,,0.00,Wunderground v.1.15,2013-08-05 06:45:00,
2013-08-04 23:55:00,55.1,53.7,30.00,WNW,282,1.0,2.0,95,0.00,,,0.00,Wunderground v.1.15,2013-08-05 06:55:00,